Time;durP1;ratioP1;P1;durP2;ratioP2;P2;SDS_P1;SDS_P2;PMS_P1;PMS_P2;Temp;Humidity;BMP_temperature;BMP_pressure;BME280_temperature;BME280_humidity;BME280_pressure;Samples;Min_cycle;Max_cycle;Signal;HPM_P1;HPM_P2
2022/04/01 00:00:19;;;;;;;16.00;10.02;;;;;;;2.48;100.00;100129.22;5267300;28;20024;-76
2022/04/01 00:02:49;;;;;;;18.45;10.90;;;;;;;2.46;100.00;100138.25;5266954;28;20110;-76
2022/04/01 00:05:20;;;;;;;21.15;11.00;;;;;;;2.46;100.00;100136.47;5266851;28;20462;-76
2022/04/01 00:07:50;;;;;;;18.20;11.05;;;;;;;2.38;100.00;100143.38;5267046;28;20032;-76
2022/04/01 00:10:21;;;;;;;16.50;10.35;;;;;;;2.32;100.00;100150.88;5267068;28;20020;-75
2022/04/01 00:12:51;;;;;;;17.48;10.32;;;;;;;2.32;100.00;100156.16;5266976;28;20122;-76
2022/04/01 00:15:23;;;;;;;19.23;11.25;;;;;;;2.29;100.00;100164.34;5253828;28;20415;-76
2022/04/01 00:17:54;;;;;;;17.55;10.48;;;;;;;2.29;100.00;100159.06;5266825;28;20032;-76
2022/04/01 00:20:27;;;;;;;17.58;10.10;;;;;;;2.25;100.00;100159.44;5266754;28;20103;-75
2022/04/01 00:22:57;;;;;;;19.58;11.10;;;;;;;2.21;100.00;100158.00;5266685;28;20031;-76
2022/04/01 00:25:29;;;;;;;17.13;10.73;;;;;;;2.17;100.00;100160.09;5266217;28;20028;-76
2022/04/01 00:27:59;;;;;;;20.17;11.77;;;;;;;2.18;100.00;100160.94;5266838;28;20024;-76
2022/04/01 00:30:29;;;;;;;18.80;11.25;;;;;;;2.12;100.00;100170.22;5266597;28;20023;-76
2022/04/01 00:33:01;;;;;;;21.65;12.13;;;;;;;2.09;100.00;100178.41;5266757;28;20082;-76
2022/04/01 00:35:32;;;;;;;22.85;12.75;;;;;;;2.04;100.00;100173.50;5265177;28;20024;-76
2022/04/01 00:38:02;;;;;;;23.33;13.38;;;;;;;1.97;100.00;100179.44;5266906;28;20028;-76
2022/04/01 00:40:35;;;;;;;23.02;13.77;;;;;;;1.98;100.00;100187.25;5257040;28;20020;-76
2022/04/01 00:43:06;;;;;;;25.55;12.75;;;;;;;1.97;100.00;100180.28;5262617;28;20020;-76
2022/04/01 00:45:38;;;;;;;25.27;13.98;;;;;;;1.94;100.00;100183.16;5265600;28;20127;-76
2022/04/01 00:48:08;;;;;;;21.73;12.63;;;;;;;1.93;100.00;100185.94;5266480;28;20016;-76
2022/04/01 00:50:39;;;;;;;23.45;13.15;;;;;;;1.88;100.00;100178.41;5266606;28;20611;-76
2022/04/01 00:53:10;;;;;;;25.98;14.30;;;;;;;1.89;100.00;100189.81;5266363;28;20394;-76
2022/04/01 00:55:40;;;;;;;22.40;12.90;;;;;;;1.88;100.00;100196.06;5265688;28;20035;-76
2022/04/01 00:58:11;;;;;;;20.75;12.23;;;;;;;1.87;100.00;100195.25;5266610;28;20027;-76
2022/04/01 01:00:42;;;;;;;23.30;13.38;;;;;;;1.82;100.00;100197.44;5266415;28;20122;-76
2022/04/01 01:03:13;;;;;;;22.15;12.43;;;;;;;1.82;100.00;100194.78;5266421;28;20028;-76
2022/04/01 01:05:43;;;;;;;24.40;14.05;;;;;;;1.78;100.00;100196.81;5265737;28;20034;-76
2022/04/01 01:08:15;;;;;;;22.10;12.50;;;;;;;1.81;100.00;100190.47;5266332;28;20016;-75
2022/04/01 01:10:46;;;;;;;26.00;13.32;;;;;;;1.78;100.00;100188.06;5266337;28;20499;-75
2022/04/01 01:13:17;;;;;;;19.42;12.00;;;;;;;1.75;100.00;100199.72;5266422;28;20024;-76
2022/04/01 01:15:47;;;;;;;17.08;10.10;;;;;;;1.74;100.00;100192.75;5254754;28;20395;-76
2022/04/01 01:18:18;;;;;;;19.20;9.95;;;;;;;1.78;100.00;100199.47;5266268;28;20028;-76
2022/04/01 01:20:49;;;;;;;16.52;9.38;;;;;;;1.72;100.00;100199.16;5266789;28;20471;-76
2022/04/01 01:23:20;;;;;;;14.30;8.65;;;;;;;1.73;100.00;100199.00;5266145;28;20067;-76
2022/04/01 01:25:51;;;;;;;16.95;9.23;;;;;;;1.70;100.00;100191.31;5265570;28;20504;-76
2022/04/01 01:28:24;;;;;;;12.13;8.27;;;;;;;1.69;100.00;100196.75;5266782;28;20032;-75
2022/04/01 01:30:55;;;;;;;12.05;7.88;;;;;;;1.64;100.00;100204.22;5266060;28;20028;-75
2022/04/01 01:33:26;;;;;;;12.57;7.43;;;;;;;1.67;100.00;100202.16;5266539;28;20103;-76
2022/04/01 01:35:56;;;;;;;11.30;7.32;;;;;;;1.65;100.00;100195.31;5266050;28;20039;-76
2022/04/01 01:38:28;;;;;;;10.45;7.15;;;;;;;1.61;100.00;100210.59;5248833;28;20391;-76
2022/04/01 01:40:59;;;;;;;11.15;6.78;;;;;;;1.56;100.00;100212.78;5234843;28;20024;-75
2022/04/01 01:43:29;;;;;;;10.43;6.43;;;;;;;1.54;100.00;100209.41;5265334;28;20138;-76
2022/04/01 01:46:05;;;;;;;9.57;6.22;;;;;;;1.56;100.00;100207.50;5265226;28;20027;-76
2022/04/01 01:48:36;;;;;;;11.10;6.75;;;;;;;1.49;100.00;100209.75;5270033;28;20021;-76
2022/04/01 01:56:48;;;;;;;9.25;5.88;;;;;;;1.50;100.00;100218.53;5270032;28;20399;-76
2022/04/01 01:59:20;;;;;;;11.63;5.60;;;;;;;1.41;100.00;100216.66;5269939;28;20028;-76
2022/04/01 02:01:50;;;;;;;10.18;5.57;;;;;;;1.39;100.00;100227.31;5269770;28;20024;-76
2022/04/01 02:04:24;;;;;;;10.97;5.87;;;;;;;1.45;100.00;100228.63;5268873;28;20020;-76
2022/04/01 02:06:55;;;;;;;7.55;4.63;;;;;;;1.41;100.00;100222.78;5269803;28;20398;-77
2022/04/01 02:09:26;;;;;;;9.38;4.80;;;;;;;1.26;100.00;100222.19;5269635;28;20031;-76
2022/04/01 02:11:58;;;;;;;6.78;4.25;;;;;;;1.24;100.00;100224.09;5269258;28;20032;-77
2022/04/01 02:14:30;;;;;;;10.02;4.95;;;;;;;1.24;100.00;100231.19;5262951;28;20090;-76
2022/04/01 02:17:00;;;;;;;8.32;4.35;;;;;;;1.26;100.00;100224.00;5263965;28;20418;-76
2022/04/01 02:19:31;;;;;;;7.43;4.50;;;;;;;1.27;100.00;100233.59;5269467;28;20081;-76
2022/04/01 02:22:02;;;;;;;5.78;4.10;;;;;;;1.23;100.00;100234.81;5269121;28;20036;-76
2022/04/01 02:24:33;;;;;;;8.38;4.90;;;;;;;1.18;100.00;100226.41;5268762;28;20034;-76
2022/04/01 02:27:03;;;;;;;8.52;4.63;;;;;;;1.13;100.00;100242.59;5269154;28;20395;-76
2022/04/01 02:29:34;;;;;;;6.63;4.20;;;;;;;1.12;100.00;100245.38;5269220;28;20031;-76
2022/04/01 02:32:05;;;;;;;8.05;4.47;;;;;;;1.09;100.00;100245.59;5269066;28;20020;-76
2022/04/01 02:34:35;;;;;;;7.22;4.60;;;;;;;1.07;100.00;100234.34;5268506;28;20047;-77
2022/04/01 02:37:05;;;;;;;7.65;4.50;;;;;;;1.00;100.00;100241.88;5269177;28;20059;-77
2022/04/01 02:39:37;;;;;;;7.47;4.80;;;;;;;0.99;100.00;100242.84;5267168;28;20039;-77
2022/04/01 02:42:07;;;;;;;9.63;4.72;;;;;;;0.95;100.00;100247.50;5257225;28;20556;-77
2022/04/01 02:44:39;;;;;;;8.50;4.97;;;;;;;0.95;100.00;100244.03;5268004;28;20067;-76
2022/04/01 02:47:09;;;;;;;8.43;4.55;;;;;;;0.89;100.00;100253.28;5268901;28;20501;-77
2022/04/01 02:49:40;;;;;;;6.82;4.30;;;;;;;0.90;100.00;100256.75;5268804;28;20028;-77
2022/04/01 02:52:11;;;;;;;6.93;4.65;;;;;;;0.89;100.00;100261.19;5268848;28;20111;-77
2022/04/01 02:54:41;;;;;;;7.43;4.30;;;;;;;0.85;100.00;100262.41;5268453;28;20384;-76
2022/04/01 02:57:12;;;;;;;7.85;4.68;;;;;;;0.88;100.00;100266.63;5269035;28;20020;-77
2022/04/01 02:59:42;;;;;;;8.88;4.70;;;;;;;0.83;100.00;100268.75;5267550;28;20072;-76
2022/04/01 03:02:12;;;;;;;7.50;4.63;;;;;;;0.79;100.00;100268.16;5268459;28;20497;-77
2022/04/01 03:04:43;;;;;;;7.47;4.80;;;;;;;0.80;100.00;100269.81;5267757;28;20040;-77
2022/04/01 03:07:14;;;;;;;9.18;5.05;;;;;;;0.78;100.00;100263.84;5268583;28;20035;-77
2022/04/01 03:09:45;;;;;;;10.70;5.20;;;;;;;0.81;100.00;100279.47;5268637;28;20024;-77
2022/04/01 03:12:16;;;;;;;7.47;4.68;;;;;;;0.81;100.00;100282.09;5268213;28;20020;-77
2022/04/01 03:14:46;;;;;;;9.18;5.20;;;;;;;0.78;100.00;100283.16;5258880;28;20097;-77
2022/04/01 03:17:17;;;;;;;7.97;5.32;;;;;;;0.78;100.00;100283.16;5266872;28;20119;-77
2022/04/01 03:19:47;;;;;;;9.10;4.55;;;;;;;0.80;100.00;100284.84;5268280;28;20104;-77
2022/04/01 03:22:20;;;;;;;7.13;4.68;;;;;;;0.79;100.00;100291.91;5267949;28;20020;-77
2022/04/01 03:24:51;;;;;;;11.07;5.20;;;;;;;0.74;100.00;100292.25;5267686;28;20032;-76
2022/04/01 03:27:21;;;;;;;7.25;4.70;;;;;;;0.74;100.00;100292.25;5268129;28;20035;-77
2022/04/01 03:29:52;;;;;;;6.93;4.70;;;;;;;0.73;100.00;100300.31;5267815;28;20032;-77
2022/04/01 03:32:22;;;;;;;7.22;4.53;;;;;;;0.75;100.00;100301.91;5267803;28;20395;-77
2022/04/01 03:34:53;;;;;;;8.88;5.00;;;;;;;0.76;100.00;100297.44;5267444;28;20057;-77
2022/04/01 03:37:23;;;;;;;8.63;4.80;;;;;;;0.68;100.00;100308.59;5268494;28;20132;-77
2022/04/01 03:39:54;;;;;;;8.18;4.90;;;;;;;0.68;100.00;100298.03;5263636;28;20024;-77
2022/04/01 03:42:29;;;;;;;7.10;4.45;;;;;;;0.68;100.00;100298.03;5258140;28;20027;-77
2022/04/01 03:45:03;;;;;;;8.75;4.72;;;;;;;0.65;100.00;100300.91;5267213;28;20407;-77
2022/04/01 03:47:45;;;;;;;7.78;4.40;;;;;;;0.68;100.00;100315.66;5267664;28;20028;-77
2022/04/01 03:50:18;;;;;;;8.43;5.22;;;;;;;0.65;100.00;100314.13;5267822;28;20024;-77
2022/04/01 03:52:50;;;;;;;8.05;5.10;;;;;;;0.62;100.00;100302.94;5267348;28;20028;-77
2022/04/01 03:55:24;;;;;;;8.80;4.45;;;;;;;0.61;100.00;100306.53;5266985;28;20023;-77
2022/04/01 03:58:00;;;;;;;7.18;4.95;;;;;;;0.60;100.00;100312.75;5267773;28;20069;-77
2022/04/01 04:00:32;;;;;;;9.65;5.20;;;;;;;0.59;100.00;100308.44;5267610;28;20483;-77
2022/04/01 04:03:06;;;;;;;12.95;5.10;;;;;;;0.57;100.00;100319.13;5266904;28;20028;-77
2022/04/01 04:05:39;;;;;;;9.43;5.20;;;;;;;0.57;100.00;100320.91;5248944;28;20028;-77
2022/04/01 04:08:11;;;;;;;8.30;5.25;;;;;;;0.54;100.00;100321.13;5267045;28;20023;-77
2022/04/01 04:10:42;;;;;;;8.50;5.63;;;;;;;0.55;100.00;100313.09;5267095;28;20032;-77
2022/04/01 04:13:15;;;;;;;8.95;5.10;;;;;;;0.58;100.00;100331.34;5267408;28;20016;-77
2022/04/01 04:16:09;;;;;;;8.70;5.07;;;;;;;0.56;100.00;100329.81;5254370;28;20119;-77
2022/04/01 04:18:43;;;;;;;9.27;5.47;;;;;;;0.57;100.00;100334.94;5267051;28;20024;-77
2022/04/01 04:21:43;;;;;;;8.68;5.20;;;;;;;0.56;100.00;100338.56;5267485;28;20027;-77
2022/04/01 04:24:56;;;;;;;12.10;6.00;;;;;;;0.55;100.00;100342.13;5264133;28;20024;-76
2022/04/01 04:27:29;;;;;;;8.82;5.55;;;;;;;0.55;100.00;100346.56;5267105;28;20070;-76
2022/04/01 04:30:15;;;;;;;9.40;5.30;;;;;;;0.52;100.00;100363.50;5267013;28;20036;-76
2022/04/01 04:33:05;;;;;;;8.48;5.50;;;;;;;0.48;100.00;100368.16;5266848;28;20031;-76
2022/04/01 04:35:38;;;;;;;9.77;5.88;;;;;;;0.46;100.00;100364.78;5266406;28;20088;-76
2022/04/01 04:38:10;;;;;;;11.20;6.35;;;;;;;0.43;100.00;100367.63;5266907;28;20403;-76
2022/04/01 04:40:42;;;;;;;8.98;5.90;;;;;;;0.47;100.00;100360.34;5255712;28;20051;-76
2022/04/01 04:43:18;;;;;;;10.25;6.22;;;;;;;0.47;100.00;100376.19;5263956;28;20032;-76
2022/04/01 04:45:51;;;;;;;12.15;6.70;;;;;;;0.45;100.00;100376.31;5266215;28;20352;-76
2022/04/01 04:48:23;;;;;;;10.63;6.72;;;;;;;0.44;100.00;100381.69;5266464;28;20114;-76
2022/04/01 04:50:58;;;;;;;12.27;6.53;;;;;;;0.45;100.00;100386.00;5266340;28;20038;-76
2022/04/01 04:53:31;;;;;;;10.63;6.43;;;;;;;0.41;100.00;100390.69;5266533;28;20054;-76
2022/04/01 04:56:04;;;;;;;13.00;7.38;;;;;;;0.44;100.00;100392.22;5266041;28;20024;-76
2022/04/01 04:58:52;;;;;;;11.73;7.03;;;;;;;0.43;100.00;100403.75;5266633;28;20016;-76
2022/04/01 05:01:49;;;;;;;11.73;6.40;;;;;;;0.41;100.00;100401.22;5266206;28;20097;-76
2022/04/01 05:04:53;;;;;;;13.05;7.25;;;;;;;0.41;100.00;100411.78;5266029;28;20089;-76
2022/04/01 05:08:01;;;;;;;13.70;6.82;;;;;;;0.39;100.00;100420.75;5266515;28;20032;-76
2022/04/01 05:11:02;;;;;;;15.48;7.60;;;;;;;0.37;100.00;100423.50;5248668;28;20016;-76
2022/04/01 05:13:48;;;;;;;12.73;6.95;;;;;;;0.38;100.00;100429.63;5267169;28;20027;-76
2022/04/01 05:16:48;;;;;;;12.15;7.40;;;;;;;0.35;100.00;100440.41;5244031;28;20383;-76
2022/04/01 05:19:36;;;;;;;12.15;6.97;;;;;;;0.35;100.00;100443.91;5266449;28;20491;-76
2022/04/01 05:22:08;;;;;;;12.10;6.70;;;;;;;0.34;100.00;100446.63;5267601;28;20028;-76
2022/04/01 05:24:42;;;;;;;12.23;7.53;;;;;;;0.28;100.00;100449.72;5270249;28;20031;-77
2022/04/01 05:33:16;;;;;;;13.43;8.05;;;;;;;0.20;100.00;100469.59;5270166;28;19912;-76
2022/04/01 05:35:51;;;;;;;15.30;7.95;;;;;;;0.18;100.00;100463.56;5269675;28;20036;-76
2022/04/01 05:38:22;;;;;;;13.95;7.75;;;;;;;0.15;100.00;100471.72;5270237;28;20020;-76
2022/04/01 05:40:55;;;;;;;13.77;8.13;;;;;;;0.13;100.00;100475.41;5257458;28;20039;-76
2022/04/01 05:43:28;;;;;;;13.40;7.53;;;;;;;0.10;100.00;100476.47;5269159;28;20118;-74
2022/04/01 05:45:58;;;;;;;14.00;8.32;;;;;;;0.08;100.00;100481.00;5269599;28;20028;-75
2022/04/01 05:48:30;;;;;;;13.88;7.88;;;;;;;0.08;100.00;100488.91;5270248;28;20503;-76
2022/04/01 05:51:04;;;;;;;14.82;7.93;;;;;;;0.12;100.00;100493.03;5269960;28;20027;-77
2022/04/01 05:53:37;;;;;;;14.77;7.90;;;;;;;0.15;100.00;100498.09;5269682;28;20024;-77
2022/04/01 05:56:07;;;;;;;15.90;8.65;;;;;;;0.13;100.00;100499.13;5269427;28;20425;-77
2022/04/01 05:58:39;;;;;;;14.43;8.02;;;;;;;0.12;100.00;100506.22;5270041;28;20028;-76
2022/04/01 06:01:18;;;;;;;13.30;8.27;;;;;;;0.13;100.00;100502.63;5270104;28;20039;-76
2022/04/01 06:04:09;;;;;;;14.52;7.97;;;;;;;0.13;100.00;100505.25;5269834;28;20082;-76
2022/04/01 06:06:42;;;;;;;13.43;8.18;;;;;;;0.15;100.00;100507.78;5269872;28;20149;-76
2022/04/01 06:09:33;;;;;;;14.60;8.65;;;;;;;0.16;100.00;100512.13;5269625;28;20048;-76
2022/04/01 06:12:40;;;;;;;16.08;8.02;;;;;;;0.14;100.00;100520.13;5269318;28;20032;-76
2022/04/01 06:15:48;;;;;;;15.63;8.25;;;;;;;0.16;100.00;100535.88;5257664;28;20021;-76
2022/04/01 06:18:56;;;;;;;15.90;8.43;;;;;;;0.17;100.00;100537.56;5269513;28;20031;-76
2022/04/01 06:21:30;;;;;;;15.77;8.15;;;;;;;0.16;100.00;100536.72;5251178;28;20032;-76
2022/04/01 06:24:32;;;;;;;15.75;8.60;;;;;;;0.18;100.00;100544.50;5269165;28;20379;-77
2022/04/01 06:27:05;;;;;;;14.10;7.75;;;;;;;0.19;100.00;100554.94;5269189;28;20036;-77
2022/04/01 06:29:40;;;;;;;17.42;8.93;;;;;;;0.24;100.00;100560.75;5269374;28;20051;-77
2022/04/01 06:32:19;;;;;;;17.73;8.50;;;;;;;0.25;100.00;100540.47;5268992;28;20093;-77
2022/04/01 06:35:14;;;;;;;15.27;8.55;;;;;;;0.28;100.00;100555.25;5268695;28;20023;-77
2022/04/01 06:38:02;;;;;;;13.50;7.60;;;;;;;0.31;100.00;100565.63;5269302;28;20031;-77
2022/04/01 06:40:46;;;;;;;14.57;8.23;;;;;;;0.33;100.00;100566.34;5259743;28;20432;-77
2022/04/01 06:43:17;;;;;;;14.77;7.90;;;;;;;0.34;100.00;100582.06;5261607;28;20361;-77
2022/04/01 06:45:47;;;;;;;16.08;8.15;;;;;;;0.36;100.00;100579.34;5260087;28;20027;-78
2022/04/01 06:48:18;;;;;;;13.50;8.25;;;;;;;0.37;100.00;100588.94;5253096;28;20659;-76
2022/04/01 06:50:49;;;;;;;14.15;7.95;;;;;;;0.36;100.00;100589.88;5254374;28;20556;-76
2022/04/01 06:53:20;;;;;;;12.73;7.65;;;;;;;0.38;100.00;100587.97;5267342;28;20028;-76
2022/04/01 06:55:52;;;;;;;14.70;8.40;;;;;;;0.43;100.00;100599.06;5267057;28;20077;-77
2022/04/01 07:01:12;;;;;;;15.65;9.40;;;;;;;0.43;100.00;100609.59;5266804;28;20052;-77
2022/04/01 07:03:43;;;;;;;15.45;7.80;;;;;;;0.41;100.00;100617.66;5249522;28;20107;-77
2022/04/01 07:06:13;;;;;;;15.32;8.43;;;;;;;0.46;100.00;100620.81;5267158;28;20128;-77
2022/04/01 07:08:44;;;;;;;17.40;8.73;;;;;;;0.48;100.00;100626.81;5248952;28;20468;-77
2022/04/01 07:11:15;;;;;;;13.65;7.40;;;;;;;0.45;100.00;100636.72;5266988;28;20032;-78
2022/04/01 07:13:45;;;;;;;16.52;8.05;;;;;;;0.48;100.00;100636.53;5266639;28;20020;-77
2022/04/01 07:16:16;;;;;;;16.35;8.38;;;;;;;0.50;100.00;100634.59;5255463;28;20329;-77
2022/04/01 07:18:47;;;;;;;14.23;8.10;;;;;;;0.46;100.00;100646.34;5267131;28;20047;-77
2022/04/01 07:21:18;;;;;;;18.92;8.68;;;;;;;0.45;100.00;100653.44;5266766;28;20114;-77
2022/04/01 07:23:48;;;;;;;15.65;8.43;;;;;;;0.46;100.00;100649.00;5266763;28;20074;-77
2022/04/01 07:26:19;;;;;;;14.63;8.02;;;;;;;0.44;100.00;100657.00;5266447;28;20085;-77
2022/04/01 07:28:49;;;;;;;17.80;8.40;;;;;;;0.49;100.00;100667.25;5242788;28;20099;-77
2022/04/01 07:34:09;;;;;;;15.05;7.85;;;;;;;0.45;100.00;100684.22;5266358;28;20045;-77
2022/04/01 07:36:40;;;;;;;13.15;7.50;;;;;;;0.48;100.00;100676.13;5266735;28;20027;-75
2022/04/01 07:39:10;;;;;;;18.35;8.70;;;;;;;0.52;100.00;100681.09;5266425;28;20042;-77
2022/04/01 07:41:41;;;;;;;13.82;7.38;;;;;;;0.52;100.00;100689.00;5252505;28;20019;-77
2022/04/01 07:44:11;;;;;;;14.95;7.63;;;;;;;0.52;100.00;100683.72;5265126;28;20400;-77
2022/04/01 07:46:42;;;;;;;12.55;7.70;;;;;;;0.53;100.00;100684.56;5266432;28;20071;-76
2022/04/01 07:49:13;;;;;;;14.57;8.48;;;;;;;0.55;100.00;100700.28;5266329;28;20031;-76
2022/04/01 07:51:43;;;;;;;11.27;6.88;;;;;;;0.54;100.00;100715.28;5266238;28;20051;-75
2022/04/01 07:54:16;;;;;;;12.05;6.97;;;;;;;0.57;100.00;100711.59;5265449;28;20445;-75
2022/04/01 07:56:47;;;;;;;12.45;7.28;;;;;;;0.52;100.00;100710.13;5248466;28;20537;-76
2022/04/01 07:59:20;;;;;;;13.98;6.78;;;;;;;0.53;100.00;100718.88;5265792;28;20019;-75
2022/04/01 08:01:50;;;;;;;12.07;6.43;;;;;;;0.54;100.00;100723.19;5248906;28;20365;-74
2022/04/01 08:04:21;;;;;;;16.95;7.15;;;;;;;0.54;100.00;100719.72;5265793;28;20027;-75
2022/04/01 08:06:52;;;;;;;10.55;5.93;;;;;;;0.51;100.00;100724.28;5266319;28;20073;-74
2022/04/01 08:09:23;;;;;;;14.07;5.72;;;;;;;0.54;100.00;100741.69;5266053;28;20035;-75
2022/04/01 08:11:55;;;;;;;9.75;5.70;;;;;;;0.60;100.00;100743.06;5266264;28;20561;-75
2022/04/01 08:14:26;;;;;;;11.48;5.50;;;;;;;0.58;100.00;100737.88;5232618;28;20394;-75
2022/04/01 08:16:56;;;;;;;11.55;5.63;;;;;;;0.58;100.00;100735.25;5245446;28;20025;-75
2022/04/01 08:19:27;;;;;;;9.88;5.65;;;;;;;0.59;100.00;100744.84;5244997;28;20086;-75
2022/04/01 08:21:58;;;;;;;8.77;5.60;;;;;;;0.61;100.00;100747.41;5261558;28;20046;-74
2022/04/01 08:24:28;;;;;;;10.45;5.32;;;;;;;0.70;100.00;100755.56;5255304;28;20159;-75
2022/04/01 08:27:00;;;;;;;10.90;6.05;;;;;;;0.75;100.00;100750.78;5240625;28;20025;-75
2022/04/01 08:29:30;;;;;;;11.90;6.00;;;;;;;0.76;100.00;100754.28;5257766;28;20104;-75
2022/04/01 08:32:01;;;;;;;12.77;6.20;;;;;;;0.81;100.00;100761.88;5267639;28;20090;-74
2022/04/01 08:34:32;;;;;;;22.40;5.95;;;;;;;0.82;100.00;100768.84;5269718;28;20031;-75
2022/04/01 08:37:03;;;;;;;12.40;5.93;;;;;;;0.83;100.00;100776.66;5283051;28;20257;-74
2022/04/01 08:39:34;;;;;;;10.20;5.68;;;;;;;0.94;100.00;100770.63;5266459;28;20038;-75
2022/04/01 08:42:05;;;;;;;11.82;5.30;;;;;;;0.85;100.00;100781.81;5256652;28;20024;-75
2022/04/01 08:44:41;;;;;;;11.23;4.95;;;;;;;0.89;100.00;100780.66;5280923;28;20058;-75
2022/04/01 08:47:12;;;;;;;8.38;5.05;;;;;;;0.99;100.00;100781.72;5272899;28;20070;-75
2022/04/01 08:49:42;;;;;;;8.77;5.22;;;;;;;0.98;100.00;100786.16;5248214;28;20027;-75
2022/04/01 08:52:13;;;;;;;12.13;5.72;;;;;;;1.04;100.00;100785.72;5247454;28;20095;-75
2022/04/01 08:54:44;;;;;;;9.13;4.45;;;;;;;1.02;100.00;100797.38;5265032;28;20539;-75
2022/04/01 08:57:18;;;;;;;9.38;5.40;;;;;;;1.03;100.00;100799.06;5264877;28;20114;-74
2022/04/01 08:59:48;;;;;;;13.07;5.50;;;;;;;1.04;100.00;100813.97;5247508;28;20020;-75
2022/04/01 09:02:19;;;;;;;12.63;5.25;;;;;;;1.08;100.00;100814.59;5265136;28;20028;-75
2022/04/01 09:05:03;;;;;;;11.32;4.57;;;;;;;1.02;100.00;100822.00;5246735;28;20053;-74
2022/04/01 09:07:34;;;;;;;12.85;4.82;;;;;;;1.08;100.00;100812.78;5265272;28;20494;-74
2022/04/01 09:10:07;;;;;;;10.65;5.00;;;;;;;1.02;100.00;100822.00;5265082;28;20706;-75
2022/04/01 09:12:49;;;;;;;14.88;4.60;;;;;;;1.00;100.00;100829.19;5265030;28;20399;-75
2022/04/01 09:15:20;;;;;;;9.65;4.65;;;;;;;1.04;100.00;100829.81;5252240;28;20017;-75
2022/04/01 09:17:51;;;;;;;8.15;4.55;;;;;;;1.02;100.00;100847.56;5265056;28;20039;-74
2022/04/01 09:20:22;;;;;;;9.88;4.93;;;;;;;1.02;100.00;100837.00;5264565;28;20028;-74
2022/04/01 09:22:58;;;;;;;10.93;4.95;;;;;;;1.07;100.00;100837.53;5264948;28;20169;-74
2022/04/01 09:25:28;;;;;;;8.75;4.38;;;;;;;0.96;100.00;100851.47;5264139;28;20024;-74
2022/04/01 09:27:59;;;;;;;7.85;4.07;;;;;;;1.02;100.00;100844.94;5264833;28;20290;-74
2022/04/01 09:30:30;;;;;;;7.72;4.47;;;;;;;1.03;100.00;100844.81;5264609;28;20027;-75
2022/04/01 09:33:01;;;;;;;6.45;4.25;;;;;;;1.03;100.00;100851.91;5264766;28;20054;-75
2022/04/01 09:35:33;;;;;;;7.70;4.00;;;;;;;1.11;100.00;100862.81;5264035;28;20058;-75
2022/04/01 09:38:04;;;;;;;9.45;4.43;;;;;;;1.14;100.00;100857.28;5264672;28;20032;-75
2022/04/01 09:40:35;;;;;;;6.85;4.25;;;;;;;1.18;100.00;100857.94;5254759;28;20532;-74
2022/04/01 09:43:07;;;;;;;11.60;4.78;;;;;;;1.20;100.00;100866.59;5260766;28;20027;-74
2022/04/01 09:45:37;;;;;;;10.35;4.40;;;;;;;1.21;100.00;100868.31;5263891;28;20116;-75
2022/04/01 09:48:12;;;;;;;9.27;4.35;;;;;;;1.22;100.00;100865.53;5246620;28;20169;-75
2022/04/01 09:50:54;;;;;;;9.68;4.22;;;;;;;1.24;100.00;100860.13;5264525;28;20031;-75
2022/04/01 09:53:26;;;;;;;10.57;4.32;;;;;;;1.20;100.00;100879.78;5246698;28;20024;-75
2022/04/01 09:55:57;;;;;;;8.70;4.68;;;;;;;1.18;100.00;100871.13;5263982;28;20077;-75
2022/04/01 09:58:27;;;;;;;10.75;4.20;;;;;;;1.13;100.00;100849.47;5264505;28;20024;-75
2022/04/01 10:01:01;;;;;;;8.07;4.68;;;;;;;1.16;100.00;100849.28;5264121;28;20035;-74
2022/04/01 10:03:31;;;;;;;7.80;4.07;;;;;;;1.12;100.00;100879.50;5264054;28;20028;-74
2022/04/01 10:06:02;;;;;;;11.95;4.13;;;;;;;1.17;100.00;100880.03;5258818;28;20087;-74
2022/04/01 10:08:35;;;;;;;8.63;4.40;;;;;;;1.18;100.00;100885.19;5258412;28;20023;-75
2022/04/01 10:11:05;;;;;;;9.15;4.45;;;;;;;1.27;100.00;100891.66;5267983;28;20036;-75
2022/04/01 10:13:37;;;;;;;6.63;3.63;;;;;;;1.36;100.00;100888.38;5250302;28;20410;-75
2022/04/01 10:16:09;;;;;;;8.50;4.07;;;;;;;1.43;100.00;100888.78;5255493;28;20114;-74
2022/04/01 10:18:42;;;;;;;5.05;3.53;;;;;;;1.51;100.00;100897.91;5268713;28;20032;-74
2022/04/01 10:21:15;;;;;;;7.97;3.42;;;;;;;1.58;100.00;100898.31;5249681;28;20102;-74
2022/04/01 10:24:06;;;;;;;5.55;3.30;;;;;;;1.63;100.00;100900.63;5267924;28;20372;-75
2022/04/01 10:26:42;;;;;;;10.02;3.40;;;;;;;1.81;100.00;100900.19;5267648;28;20020;-75
2022/04/01 10:29:13;;;;;;;6.85;3.53;;;;;;;1.84;100.00;100893.81;5267929;28;20035;-75
2022/04/01 10:31:53;;;;;;;6.70;3.67;;;;;;;1.90;100.00;100896.00;5235202;28;20062;-75
2022/04/01 10:34:25;;;;;;;15.60;3.83;;;;;;;1.94;100.00;100894.84;5267145;28;20026;-75
2022/04/01 10:37:00;;;;;;;6.60;3.50;;;;;;;1.86;100.00;100893.69;5267431;28;20027;-75
2022/04/01 10:39:30;;;;;;;6.63;3.85;;;;;;;1.87;100.00;100913.94;5266915;28;20024;-75
2022/04/01 10:42:16;;;;;;;9.20;3.67;;;;;;;1.91;100.00;100912.72;5254847;28;20035;-75
2022/04/01 10:45:06;;;;;;;8.15;3.33;;;;;;;1.83;100.00;100904.50;5267011;28;20058;-75
2022/04/01 10:54:23;;;;;;;5.28;3.00;;;;;;;1.76;100.00;100918.19;5267229;28;20383;-74
2022/04/01 10:56:53;;;;;;;6.05;3.10;;;;;;;1.75;100.00;100932.34;5267326;28;20032;-74
2022/04/01 10:59:25;;;;;;;8.75;3.10;;;;;;;1.70;100.00;100923.88;5267736;28;20411;-74
2022/04/01 11:01:59;;;;;;;4.63;2.67;;;;;;;1.73;100.00;100926.31;5266960;28;20031;-75
2022/04/01 11:04:35;;;;;;;5.72;2.92;;;;;;;1.72;100.00;100937.03;5266487;28;20059;-74
2022/04/01 11:07:24;;;;;;;8.55;3.10;;;;;;;1.73;100.00;100933.41;5267013;28;20024;-74
2022/04/01 11:09:55;;;;;;;52.35;6.70;;;;;;;1.78;100.00;100942.72;5267083;28;20036;-74
2022/04/01 11:12:50;;;;;;;8.10;4.22;;;;;;;1.78;100.00;100948.00;5266385;28;20586;-75
2022/04/01 11:15:36;;;;;;;8.02;2.90;;;;;;;1.87;100.00;100949.16;5254711;28;20602;-74
2022/04/01 11:18:08;;;;;;;9.95;2.90;;;;;;;1.97;100.00;100958.16;5255742;28;20028;-75
2022/04/01 11:20:40;;;;;;;9.18;3.22;;;;;;;2.04;100.00;100950.63;5263570;28;20479;-75
2022/04/01 11:23:12;;;;;;;11.25;2.67;;;;;;;2.13;100.00;100957.91;5248686;28;20066;-74
2022/04/01 11:25:47;;;;;;;7.13;2.85;;;;;;;2.16;100.00;100960.34;5241322;28;20435;-75
2022/04/01 11:28:17;;;;;;;17.98;3.42;;;;;;;2.24;100.00;100965.06;5261152;28;20051;-75
2022/04/01 11:30:49;;;;;;;11.20;2.97;;;;;;;2.37;100.00;100957.94;5248630;28;20114;-75
2022/04/01 11:33:21;;;;;;;10.75;3.08;;;;;;;2.40;100.00;100964.81;5266698;28;20031;-74
2022/04/01 11:35:54;;;;;;;12.45;2.75;;;;;;;2.35;100.00;100957.19;5267899;28;20031;-74
2022/04/01 11:38:27;;;;;;;7.50;2.80;;;;;;;2.39;100.00;100965.78;5266645;28;20395;-74
2022/04/01 11:41:00;;;;;;;3.88;2.40;;;;;;;2.33;100.00;100959.97;5253217;28;20107;-75
2022/04/01 11:43:33;;;;;;;8.10;2.65;;;;;;;2.33;100.00;100972.38;5266578;28;20396;-77
2022/04/01 11:46:06;;;;;;;7.10;2.75;;;;;;;2.30;100.00;100960.19;5266833;28;20040;-75
2022/04/01 11:48:39;;;;;;;4.47;2.35;;;;;;;2.40;100.00;100967.47;5258434;28;20474;-75
2022/04/01 11:51:28;;;;;;;5.97;2.60;;;;;;;2.51;100.00;100964.88;5261415;28;20024;-74
2022/04/01 11:53:59;;;;;;;7.55;2.72;;;;;;;2.59;100.00;100968.66;5266406;28;20107;-75
2022/04/01 11:56:30;;;;;;;5.43;2.85;;;;;;;2.69;100.00;100970.66;5231560;28;20098;-75
2022/04/01 11:59:03;;;;;;;7.22;2.60;;;;;;;2.81;100.00;100970.59;5266506;28;20028;-77
2022/04/01 12:01:54;;;;;;;4.50;2.42;;;;;;;2.79;100.00;100961.06;5266097;28;20625;-76
2022/04/01 12:04:27;;;;;;;7.25;2.78;;;;;;;2.71;100.00;100976.66;5265598;28;20434;-77
2022/04/01 12:10:01;;;;;;;5.50;3.00;;;;;;;2.57;100.00;100983.00;5265957;28;20028;-77
2022/04/01 12:12:33;;;;;;;6.50;2.60;;;;;;;2.53;100.00;100984.16;5265249;28;20028;-76
2022/04/01 12:15:06;;;;;;;10.93;2.58;;;;;;;2.44;100.00;100980.38;5236367;28;20471;-75
2022/04/01 12:17:48;;;;;;;8.48;3.25;;;;;;;2.39;100.00;100979.84;5265378;28;20024;-75